Time;durP1;ratioP1;P1;durP2;ratioP2;P2;SDS_P1;SDS_P2;PMS_P1;PMS_P2;Temp;Humidity;BMP_temperature;BMP_pressure;BME280_temperature;BME280_humidity;BME280_pressure;Samples;Min_cycle;Max_cycle;Signal;HPM_P1;HPM_P2
2021/08/07 00:01:57;;;;;;;;;;;11.70;96.70;;;;;;5070416;28;19912;-66
2021/08/07 00:04:24;;;;;;;;;;;11.70;96.60;;;;;;5070153;28;19995;-66
2021/08/07 00:06:50;;;;;;;;;;;11.80;96.70;;;;;;5070045;28;19988;-66
2021/08/07 00:09:17;;;;;;;;;;;11.80;96.60;;;;;;5069460;28;20436;-66
2021/08/07 00:11:44;;;;;;;;;;;11.80;96.70;;;;;;5069146;28;19917;-66
2021/08/07 00:14:10;;;;;;;;;;;11.80;96.80;;;;;;5070172;28;19962;-65
2021/08/07 00:16:37;;;;;;;;;;;11.90;96.60;;;;;;5070106;28;20012;-65
2021/08/07 00:19:04;;;;;;;;;;;12.00;96.50;;;;;;5070097;28;19908;-64
2021/08/07 00:21:31;;;;;;;;;;;12.10;96.20;;;;;;5069488;28;20322;-66
2021/08/07 00:23:57;;;;;;;;;;;12.10;95.80;;;;;;5069947;28;19915;-65
2021/08/07 00:26:24;;;;;;;;;;;12.10;95.50;;;;;;5069425;28;19915;-65
2021/08/07 00:28:51;;;;;;;;;;;12.20;95.80;;;;;;5070065;28;19961;-65
2021/08/07 00:31:18;;;;;;;;;;;12.20;95.40;;;;;;5085678;28;19908;-65
2021/08/07 00:33:45;;;;;;;;;;;12.30;95.20;;;;;;5073940;28;19916;-66
2021/08/07 00:36:12;;;;;;;;;;;12.40;94.80;;;;;;5073603;28;20243;-66
2021/08/07 00:38:38;;;;;;;;;;;12.50;94.70;;;;;;5074053;28;19919;-65
2021/08/07 00:41:05;;;;;;;;;;;12.50;94.60;;;;;;5073437;28;19989;-65
2021/08/07 00:43:32;;;;;;;;;;;12.50;93.80;;;;;;5074050;28;20287;-67
2021/08/07 00:45:58;;;;;;;;;;;12.60;93.50;;;;;;5073791;28;19921;-66
2021/08/07 00:48:26;;;;;;;;;;;12.60;93.60;;;;;;5073355;28;19925;-66
2021/08/07 00:50:52;;;;;;;;;;;12.70;93.40;;;;;;5055575;28;19912;-65
2021/08/07 00:53:20;;;;;;;;;;;12.70;93.30;;;;;;5073184;28;19920;-65
2021/08/07 00:55:46;;;;;;;;;;;12.70;93.00;;;;;;5072831;28;19908;-65
2021/08/07 00:58:13;;;;;;;;;;;12.80;92.80;;;;;;5074153;28;19999;-66
2021/08/07 01:00:40;;;;;;;;;;;12.90;93.00;;;;;;5073798;28;20346;-65
2021/08/07 01:03:13;;;;;;;;;;;12.90;92.90;;;;;;5074286;28;20183;-65
2021/08/07 01:05:43;;;;;;;;;;;12.90;92.80;;;;;;5073596;28;19908;-65
2021/08/07 01:08:21;;;;;;;;;;;13.10;92.90;;;;;;5073680;28;20019;-64
2021/08/07 01:11:11;;;;;;;;;;;13.30;92.10;;;;;;5072739;28;19914;-64
2021/08/07 01:13:43;;;;;;;;;;;13.40;92.20;;;;;;5073229;28;19908;-66
2021/08/07 01:16:15;;;;;;;;;;;13.80;91.60;;;;;;5073276;28;20000;-66
2021/08/07 01:18:43;;;;;;;;;;;14.40;91.00;;;;;;5073448;28;19939;-64
2021/08/07 01:21:12;;;;;;;;;;;14.60;90.00;;;;;;5073565;28;19913;-65
2021/08/07 01:23:47;;;;;;;;;;;14.80;89.10;;;;;;5073049;28;19915;-65
2021/08/07 01:26:23;;;;;;;;;;;14.90;89.20;;;;;;5073698;28;19995;-66
2021/08/07 01:28:51;;;;;;;;;;;14.80;89.50;;;;;;5072801;28;19962;-68
2021/08/07 01:31:18;;;;;;;;;;;15.00;88.20;;;;;;5073119;28;19908;-64
2021/08/07 01:33:46;;;;;;;;;;;15.20;87.90;;;;;;5072401;28;19977;-66
2021/08/07 01:36:13;;;;;;;;;;;14.70;87.90;;;;;;5072698;28;19971;-65
2021/08/07 01:38:42;;;;;;;;;;;14.50;89.10;;;;;;5072513;28;19951;-65
2021/08/07 01:41:15;;;;;;;;;;;14.30;89.50;;;;;;5071622;28;19908;-64
2021/08/07 01:43:42;;;;;;;;;;;14.40;89.80;;;;;;5071342;28;19999;-65
2021/08/07 01:46:10;;;;;;;;;;;14.40;90.00;;;;;;5072655;28;20381;-66
2021/08/07 01:48:45;;;;;;;;;;;14.40;89.00;;;;;;5072501;28;19920;-64
2021/08/07 01:51:16;;;;;;;;;;;14.30;89.40;;;;;;5072649;28;19916;-68
2021/08/07 01:53:44;;;;;;;;;;;14.40;90.10;;;;;;5072076;28;19938;-65
2021/08/07 01:56:14;;;;;;;;;;;14.30;89.00;;;;;;5071666;28;19908;-64
2021/08/07 01:58:46;;;;;;;;;;;14.30;89.70;;;;;;5072558;28;19971;-65
2021/08/07 02:01:14;;;;;;;;;;;14.20;89.70;;;;;;5072303;28;19919;-64
2021/08/07 02:03:42;;;;;;;;;;;14.20;89.40;;;;;;5072090;28;19991;-66
2021/08/07 02:06:09;;;;;;;;;;;14.10;90.00;;;;;;5071801;28;20410;-65
2021/08/07 02:08:36;;;;;;;;;;;14.20;89.10;;;;;;5072330;28;20421;-65
2021/08/07 02:11:04;;;;;;;;;;;14.20;88.70;;;;;;5071643;28;20371;-64
2021/08/07 02:13:30;;;;;;;;;;;14.20;87.80;;;;;;5071826;28;19920;-64
2021/08/07 02:15:58;;;;;;;;;;;14.20;87.60;;;;;;5072224;28;19909;-63
2021/08/07 02:18:26;;;;;;;;;;;14.20;87.40;;;;;;5072113;28;20094;-64
2021/08/07 02:20:53;;;;;;;;;;;14.20;87.50;;;;;;5071533;28;20319;-65
2021/08/07 02:23:20;;;;;;;;;;;14.20;86.70;;;;;;5071872;28;19908;-65
2021/08/07 02:25:51;;;;;;;;;;;14.30;86.70;;;;;;5071004;28;20022;-65
2021/08/07 02:28:19;;;;;;;;;;;14.20;87.00;;;;;;5071900;28;20268;-65
2021/08/07 02:30:46;;;;;;;;;;;14.20;87.70;;;;;;5072598;28;19952;-64
2021/08/07 02:33:12;;;;;;;;;;;14.20;87.90;;;;;;5053486;28;19916;-65
2021/08/07 02:35:39;;;;;;;;;;;14.30;88.80;;;;;;5071688;28;20355;-65
2021/08/07 02:38:06;;;;;;;;;;;14.40;88.20;;;;;;5071754;28;19961;-64
2021/08/07 02:40:33;;;;;;;;;;;14.40;89.10;;;;;;5071531;28;19919;-65
2021/08/07 02:43:00;;;;;;;;;;;14.60;87.70;;;;;;5092032;28;20435;-65
2021/08/07 02:45:27;;;;;;;;;;;14.60;87.50;;;;;;5071761;28;19927;-67
2021/08/07 02:47:54;;;;;;;;;;;14.60;86.80;;;;;;5072358;28;19918;-66
2021/08/07 02:50:21;;;;;;;;;;;14.80;86.60;;;;;;5072242;28;20359;-66
2021/08/07 02:52:48;;;;;;;;;;;14.80;86.00;;;;;;5071797;28;19908;-65
2021/08/07 02:55:15;;;;;;;;;;;14.70;85.90;;;;;;5071781;28;19908;-66
2021/08/07 02:57:42;;;;;;;;;;;14.90;86.00;;;;;;5071665;28;19975;-67
2021/08/07 03:00:09;;;;;;;;;;;15.30;84.40;;;;;;5070922;28;19909;-66
2021/08/07 03:02:36;;;;;;;;;;;15.20;85.10;;;;;;5071190;28;19909;-64
2021/08/07 03:05:03;;;;;;;;;;;15.20;85.50;;;;;;5071066;28;19908;-66
2021/08/07 03:07:29;;;;;;;;;;;15.50;84.20;;;;;;5070757;28;19920;-63
2021/08/07 03:09:56;;;;;;;;;;;15.40;83.60;;;;;;5070811;28;19913;-63
2021/08/07 03:12:23;;;;;;;;;;;15.20;83.30;;;;;;5070578;28;19935;-64
2021/08/07 03:14:49;;;;;;;;;;;15.00;83.80;;;;;;5070861;28;20395;-64
2021/08/07 03:17:16;;;;;;;;;;;15.10;84.30;;;;;;5070669;28;19927;-64
2021/08/07 03:19:42;;;;;;;;;;;15.30;83.10;;;;;;5070438;28;19909;-63
2021/08/07 03:22:10;;;;;;;;;;;15.30;83.50;;;;;;5070805;28;19909;-65
2021/08/07 03:24:37;;;;;;;;;;;15.20;83.90;;;;;;5070516;28;20358;-64
2021/08/07 03:27:03;;;;;;;;;;;15.20;85.80;;;;;;5070698;28;19912;-64
2021/08/07 03:29:30;;;;;;;;;;;15.50;84.50;;;;;;5070249;28;20007;-65
2021/08/07 03:31:57;;;;;;;;;;;15.60;84.60;;;;;;5070350;28;19942;-63
2021/08/07 03:34:23;;;;;;;;;;;15.80;83.60;;;;;;5070507;28;20320;-64
2021/08/07 03:36:50;;;;;;;;;;;15.90;82.50;;;;;;5070414;28;20320;-65
2021/08/07 03:39:16;;;;;;;;;;;15.60;82.60;;;;;;5070131;28;19958;-64
2021/08/07 03:41:43;;;;;;;;;;;15.40;83.50;;;;;;5070505;28;19943;-66
2021/08/07 03:44:10;;;;;;;;;;;15.50;83.10;;;;;;5070365;28;19919;-64
2021/08/07 03:46:36;;;;;;;;;;;15.50;83.10;;;;;;5070472;28;20016;-65
2021/08/07 03:49:03;;;;;;;;;;;15.50;83.40;;;;;;5070202;28;19920;-67
2021/08/07 03:51:30;;;;;;;;;;;15.40;83.40;;;;;;5069879;28;20003;-66
2021/08/07 03:53:56;;;;;;;;;;;15.20;84.10;;;;;;5070411;28;19908;-67
2021/08/07 03:56:23;;;;;;;;;;;15.10;84.70;;;;;;5070835;28;19909;-66
2021/08/07 03:58:50;;;;;;;;;;;15.00;85.30;;;;;;5072200;28;19908;-65
2021/08/07 04:01:16;;;;;;;;;;;15.00;85.80;;;;;;5072577;28;19949;-65
2021/08/07 04:03:43;;;;;;;;;;;15.10;85.00;;;;;;5072205;28;19969;-65
2021/08/07 04:06:10;;;;;;;;;;;15.30;84.40;;;;;;5071487;28;19909;-65
2021/08/07 04:08:36;;;;;;;;;;;15.30;84.30;;;;;;5071998;28;19971;-65
2021/08/07 04:11:03;;;;;;;;;;;15.40;85.90;;;;;;5072186;28;19909;-66
2021/08/07 04:13:30;;;;;;;;;;;15.60;84.60;;;;;;5071993;28;20317;-65
2021/08/07 04:15:56;;;;;;;;;;;15.80;83.00;;;;;;5072348;28;19916;-65
2021/08/07 04:18:23;;;;;;;;;;;15.70;83.10;;;;;;5072170;28;19919;-66
2021/08/07 04:20:52;;;;;;;;;;;15.50;82.70;;;;;;5072243;28;19995;-65
2021/08/07 04:23:19;;;;;;;;;;;15.40;84.20;;;;;;5072257;28;19924;-66
2021/08/07 04:25:45;;;;;;;;;;;15.30;84.60;;;;;;5071790;28;19966;-65
2021/08/07 04:28:12;;;;;;;;;;;15.30;84.30;;;;;;5072064;28;19917;-66
2021/08/07 04:30:39;;;;;;;;;;;15.20;84.90;;;;;;5071996;28;19991;-66
2021/08/07 04:33:05;;;;;;;;;;;15.20;84.90;;;;;;5072075;28;19941;-66
2021/08/07 04:35:32;;;;;;;;;;;15.30;83.80;;;;;;5071631;28;19909;-67
2021/08/07 04:37:59;;;;;;;;;;;15.30;84.70;;;;;;5071881;28;19961;-66
2021/08/07 04:40:27;;;;;;;;;;;15.30;84.80;;;;;;5071762;28;19916;-65
2021/08/07 04:42:53;;;;;;;;;;;15.40;84.10;;;;;;5071903;28;19915;-66
2021/08/07 04:45:20;;;;;;;;;;;15.40;83.60;;;;;;5071426;28;19927;-66
2021/08/07 04:47:51;;;;;;;;;;;15.50;83.90;;;;;;5071492;28;19928;-65
2021/08/07 04:50:18;;;;;;;;;;;15.60;83.10;;;;;;5071977;28;19916;-67
2021/08/07 04:52:44;;;;;;;;;;;15.60;83.60;;;;;;5071470;28;19916;-66
2021/08/07 04:55:11;;;;;;;;;;;15.60;83.90;;;;;;5071840;28;20385;-66
2021/08/07 04:57:38;;;;;;;;;;;15.50;84.40;;;;;;5071492;28;19991;-65
2021/08/07 05:00:05;;;;;;;;;;;15.40;84.50;;;;;;5071769;28;19931;-64
2021/08/07 05:02:31;;;;;;;;;;;15.40;84.20;;;;;;5071717;28;19908;-65
2021/08/07 05:04:58;;;;;;;;;;;15.50;84.00;;;;;;5071920;28;19915;-65
2021/08/07 05:07:25;;;;;;;;;;;15.40;83.90;;;;;;5071530;28;19912;-66
2021/08/07 05:09:51;;;;;;;;;;;15.40;84.20;;;;;;5071380;28;20294;-64
2021/08/07 05:12:18;;;;;;;;;;;15.40;84.20;;;;;;5071707;28;19992;-64
2021/08/07 05:14:45;;;;;;;;;;;15.40;84.00;;;;;;5071716;28;20395;-65
2021/08/07 05:17:11;;;;;;;;;;;15.30;84.10;;;;;;5072168;28;19916;-64
2021/08/07 05:19:38;;;;;;;;;;;15.40;85.30;;;;;;5083921;28;20347;-65
2021/08/07 05:22:04;;;;;;;;;;;15.50;84.50;;;;;;5094699;28;19965;-67
2021/08/07 05:24:31;;;;;;;;;;;15.40;85.10;;;;;;5093518;28;19908;-66
2021/08/07 05:26:58;;;;;;;;;;;15.40;84.30;;;;;;5093670;28;20373;-66
2021/08/07 05:29:24;;;;;;;;;;;15.40;84.10;;;;;;5093567;28;20390;-66
2021/08/07 05:31:51;;;;;;;;;;;15.30;84.00;;;;;;5088268;28;19915;-65
2021/08/07 05:34:18;;;;;;;;;;;15.50;83.50;;;;;;5093621;28;19908;-66
2021/08/07 05:36:44;;;;;;;;;;;15.50;83.80;;;;;;5094570;28;19916;-65
2021/08/07 05:39:11;;;;;;;;;;;15.40;84.30;;;;;;5094927;28;20338;-65
2021/08/07 05:41:38;;;;;;;;;;;15.50;84.50;;;;;;5094770;28;19912;-64
2021/08/07 05:44:04;;;;;;;;;;;15.50;84.50;;;;;;5095084;28;20319;-64
2021/08/07 05:46:31;;;;;;;;;;;15.50;83.60;;;;;;5095003;28;19920;-65
2021/08/07 05:48:58;;;;;;;;;;;15.30;83.60;;;;;;5093778;28;19966;-65
2021/08/07 05:51:24;;;;;;;;;;;15.30;84.10;;;;;;5094815;28;20424;-65
2021/08/07 05:53:52;;;;;;;;;;;15.20;83.50;;;;;;5094911;28;19981;-66
2021/08/07 05:56:19;;;;;;;;;;;15.30;84.10;;;;;;5094701;28;19919;-65
2021/08/07 05:58:46;;;;;;;;;;;15.30;83.50;;;;;;5093411;28;19908;-66
2021/08/07 06:01:13;;;;;;;;;;;15.30;84.70;;;;;;5093897;28;20324;-65
2021/08/07 06:03:40;;;;;;;;;;;15.30;84.20;;;;;;5094483;28;19919;-64
2021/08/07 06:06:07;;;;;;;;;;;15.30;84.70;;;;;;5094719;28;19931;-65
2021/08/07 06:08:33;;;;;;;;;;;15.40;83.80;;;;;;5094454;28;19916;-66
2021/08/07 06:11:00;;;;;;;;;;;15.40;84.10;;;;;;5094479;28;19912;-66
2021/08/07 06:13:27;;;;;;;;;;;15.30;84.60;;;;;;5094414;28;19915;-65
2021/08/07 06:15:53;;;;;;;;;;;15.30;85.70;;;;;;5094184;28;19962;-65
2021/08/07 06:18:20;;;;;;;;;;;15.40;83.20;;;;;;5094316;28;19999;-65
2021/08/07 06:20:47;;;;;;;;;;;15.40;83.60;;;;;;5094169;28;19908;-65
2021/08/07 06:23:13;;;;;;;;;;;15.40;84.20;;;;;;5094206;28;19915;-65
2021/08/07 06:25:40;;;;;;;;;;;15.30;84.30;;;;;;5094120;28;20025;-64
2021/08/07 06:28:07;;;;;;;;;;;15.20;85.10;;;;;;5093995;28;19935;-67
2021/08/07 06:30:33;;;;;;;;;;;15.20;84.60;;;;;;5093454;28;20294;-66
2021/08/07 06:33:00;;;;;;;;;;;15.20;84.60;;;;;;5094153;28;19909;-65
2021/08/07 06:35:27;;;;;;;;;;;15.10;85.00;;;;;;5093916;28;19958;-67
2021/08/07 06:37:54;;;;;;;;;;;15.30;85.00;;;;;;5093686;28;20359;-65
2021/08/07 06:40:22;;;;;;;;;;;15.10;85.50;;;;;;5076039;28;19994;-66
2021/08/07 06:42:49;;;;;;;;;;;15.10;86.00;;;;;;5093836;28;19915;-64
2021/08/07 06:45:15;;;;;;;;;;;15.00;85.70;;;;;;5093838;28;19947;-65
2021/08/07 06:47:42;;;;;;;;;;;14.90;85.80;;;;;;5093695;28;19916;-66
2021/08/07 06:50:09;;;;;;;;;;;14.80;85.90;;;;;;5093754;28;19908;-66
2021/08/07 06:52:36;;;;;;;;;;;14.80;86.50;;;;;;5093631;28;19912;-64
2021/08/07 06:55:03;;;;;;;;;;;14.80;86.90;;;;;;5093648;28;19916;-66
2021/08/07 06:57:30;;;;;;;;;;;14.80;87.30;;;;;;5093506;28;19908;-66
2021/08/07 06:59:56;;;;;;;;;;;14.70;87.80;;;;;;5093406;28;20329;-66
2021/08/07 07:02:23;;;;;;;;;;;14.70;89.80;;;;;;5093461;28;20282;-64
2021/08/07 07:04:49;;;;;;;;;;;14.70;89.90;;;;;;5093550;28;19912;-66
2021/08/07 07:07:16;;;;;;;;;;;14.70;90.50;;;;;;5093564;28;20609;-65
2021/08/07 07:09:43;;;;;;;;;;;14.70;92.20;;;;;;5093379;28;19958;-65
2021/08/07 07:12:09;;;;;;;;;;;14.60;92.80;;;;;;5093360;28;20305;-65
2021/08/07 07:14:36;;;;;;;;;;;14.60;93.90;;;;;;5093088;28;19908;-65
2021/08/07 07:17:03;;;;;;;;;;;14.40;94.10;;;;;;5093383;28;19908;-65
2021/08/07 07:19:30;;;;;;;;;;;14.40;94.40;;;;;;5093305;28;20363;-65
2021/08/07 07:21:57;;;;;;;;;;;14.20;94.60;;;;;;5093320;28;19953;-65
2021/08/07 07:24:24;;;;;;;;;;;14.20;95.80;;;;;;5093235;28;20363;-65
2021/08/07 07:26:51;;;;;;;;;;;14.10;95.80;;;;;;5093378;28;19908;-66
2021/08/07 07:29:17;;;;;;;;;;;14.00;96.00;;;;;;5092911;28;19916;-66
2021/08/07 07:31:44;;;;;;;;;;;14.00;96.80;;;;;;5092858;28;19935;-67
2021/08/07 07:34:11;;;;;;;;;;;14.00;97.20;;;;;;5093106;28;19995;-67
2021/08/07 07:36:37;;;;;;;;;;;13.90;97.40;;;;;;5093000;28;20384;-66
2021/08/07 07:39:04;;;;;;;;;;;13.90;97.40;;;;;;5087705;28;19914;-64
2021/08/07 07:41:32;;;;;;;;;;;13.90;97.60;;;;;;5091669;28;19909;-64
2021/08/07 07:43:58;;;;;;;;;;;13.90;98.00;;;;;;5092835;28;19977;-66
2021/08/07 07:46:25;;;;;;;;;;;13.90;97.90;;;;;;5092962;28;19969;-65
2021/08/07 07:48:51;;;;;;;;;;;13.90;98.20;;;;;;5092658;28;19967;-66
2021/08/07 07:51:18;;;;;;;;;;;13.80;98.20;;;;;;5074579;28;19934;-65
2021/08/07 07:53:45;;;;;;;;;;;13.70;98.40;;;;;;5091789;28;19955;-67
2021/08/07 07:56:11;;;;;;;;;;;13.70;98.20;;;;;;5092291;28;20276;-66
2021/08/07 07:58:38;;;;;;;;;;;13.60;98.20;;;;;;5092297;28;20297;-65
2021/08/07 08:01:05;;;;;;;;;;;13.60;98.00;;;;;;5092257;28;19908;-65
2021/08/07 08:03:31;;;;;;;;;;;13.60;97.50;;;;;;5092055;28;19961;-64
2021/08/07 08:05:58;;;;;;;;;;;13.60;95.40;;;;;;5092385;28;20011;-66
2021/08/07 08:08:25;;;;;;;;;;;13.70;96.10;;;;;;5091642;28;20007;-66
2021/08/07 08:10:51;;;;;;;;;;;13.80;94.30;;;;;;5092466;28;19998;-65
2021/08/07 08:13:20;;;;;;;;;;;14.00;93.40;;;;;;5092302;28;19908;-66
2021/08/07 08:15:47;;;;;;;;;;;14.10;93.00;;;;;;5092096;28;19908;-66
2021/08/07 08:18:13;;;;;;;;;;;14.20;92.70;;;;;;5074278;28;19991;-66
2021/08/07 08:20:40;;;;;;;;;;;14.30;92.40;;;;;;5092241;28;19909;-66
2021/08/07 08:23:08;;;;;;;;;;;14.40;91.60;;;;;;5091626;28;19916;-65
2021/08/07 08:25:34;;;;;;;;;;;14.60;91.50;;;;;;5092070;28;19909;-66
2021/08/07 08:28:01;;;;;;;;;;;14.60;91.40;;;;;;5092251;28;19923;-65
2021/08/07 08:30:28;;;;;;;;;;;14.60;91.50;;;;;;5092320;28;19947;-65
2021/08/07 08:32:54;;;;;;;;;;;14.50;91.60;;;;;;5092291;28;20002;-68
2021/08/07 08:35:21;;;;;;;;;;;14.50;91.70;;;;;;5092082;28;19915;-65
2021/08/07 08:37:48;;;;;;;;;;;14.50;92.00;;;;;;5091144;28;19908;-65
2021/08/07 08:40:15;;;;;;;;;;;14.50;91.70;;;;;;5092243;28;19908;-66
2021/08/07 08:42:42;;;;;;;;;;;14.40;91.70;;;;;;5092226;28;19908;-65
2021/08/07 08:45:10;;;;;;;;;;;14.40;91.30;;;;;;5091890;28;19916;-66
2021/08/07 08:47:37;;;;;;;;;;;14.40;90.80;;;;;;5091928;28;19912;-66
2021/08/07 08:50:04;;;;;;;;;;;14.50;90.70;;;;;;5092000;28;19920;-65
2021/08/07 08:52:31;;;;;;;;;;;14.50;90.30;;;;;;5092236;28;19915;-65
2021/08/07 08:54:58;;;;;;;;;;;14.50;90.30;;;;;;5095869;28;19912;-66
2021/08/07 08:57:25;;;;;;;;;;;14.50;90.30;;;;;;5096069;28;19962;-65
2021/08/07 08:59:52;;;;;;;;;;;14.40;90.20;;;;;;5095674;28;19980;-65
2021/08/07 09:02:19;;;;;;;;;;;14.40;90.30;;;;;;5095880;28;19919;-65
2021/08/07 09:04:46;;;;;;;;;;;14.30;90.30;;;;;;5095465;28;20260;-65
2021/08/07 09:07:14;;;;;;;;;;;14.30;90.50;;;;;;5095047;28;19947;-65
2021/08/07 09:09:42;;;;;;;;;;;14.20;90.30;;;;;;5095726;28;20282;-64
2021/08/07 09:12:10;;;;;;;;;;;14.20;90.20;;;;;;5095721;28;20323;-65
2021/08/07 09:14:43;;;;;;;;;;;14.20;90.40;;;;;;5095841;28;19908;-66
2021/08/07 09:17:20;;;;;;;;;;;14.10;90.50;;;;;;5095793;28;19908;-65
2021/08/07 09:19:51;;;;;;;;;;;14.00;90.70;;;;;;5095165;28;19969;-65
2021/08/07 09:22:29;;;;;;;;;;;13.90;90.60;;;;;;5094731;28;19934;-64
2021/08/07 09:25:08;;;;;;;;;;;14.00;90.50;;;;;;5095350;28;20286;-64
2021/08/07 09:27:38;;;;;;;;;;;13.90;90.80;;;;;;5095127;28;19916;-65
2021/08/07 09:30:10;;;;;;;;;;;13.80;90.70;;;;;;5095354;28;20235;-65
2021/08/07 09:32:51;;;;;;;;;;;13.80;90.60;;;;;;5095447;28;19908;-64
2021/08/07 09:35:37;;;;;;;;;;;13.70;90.80;;;;;;5095100;28;19908;-65
2021/08/07 09:38:05;;;;;;;;;;;13.70;90.90;;;;;;5094044;28;19915;-65
2021/08/07 09:40:44;;;;;;;;;;;13.70;90.80;;;;;;5095344;28;19908;-65
2021/08/07 09:43:11;;;;;;;;;;;13.60;90.80;;;;;;5095610;28;20259;-65
2021/08/07 09:45:38;;;;;;;;;;;13.60;90.90;;;;;;5076775;28;19924;-65
2021/08/07 09:48:07;;;;;;;;;;;13.50;91.20;;;;;;5094952;28;20011;-66
2021/08/07 09:50:34;;;;;;;;;;;13.50;90.80;;;;;;5093559;28;20064;-65
2021/08/07 09:53:01;;;;;;;;;;;13.50;90.90;;;;;;5092177;28;19966;-66
2021/08/07 09:55:28;;;;;;;;;;;13.40;91.10;;;;;;5092721;28;20381;-66
2021/08/07 09:58:03;;;;;;;;;;;13.40;91.30;;;;;;5092220;28;19916;-67
2021/08/07 10:00:39;;;;;;;;;;;13.30;91.40;;;;;;5092845;28;19919;-67
2021/08/07 10:03:17;;;;;;;;;;;13.30;91.50;;;;;;5092884;28;19916;-67
2021/08/07 10:05:45;;;;;;;;;;;13.20;91.60;;;;;;5091711;28;19994;-67
2021/08/07 10:08:12;;;;;;;;;;;13.20;91.70;;;;;;5093440;28;20009;-66
2021/08/07 10:10:39;;;;;;;;;;;13.10;91.70;;;;;;5094061;28;19918;-66
2021/08/07 10:13:06;;;;;;;;;;;13.10;91.60;;;;;;5092946;28;20373;-66
2021/08/07 10:15:33;;;;;;;;;;;13.10;91.80;;;;;;5092445;28;19915;-66
2021/08/07 10:18:01;;;;;;;;;;;13.10;92.10;;;;;;5092565;28;19919;-64
2021/08/07 10:20:28;;;;;;;;;;;13.10;92.00;;;;;;5092171;28;19991;-65
2021/08/07 10:22:55;;;;;;;;;;;13.10;92.20;;;;;;5092841;28;20396;-65
2021/08/07 10:25:23;;;;;;;;;;;13.00;92.10;;;;;;5074220;28;19919;-66
2021/08/07 10:27:56;;;;;;;;;;;13.00;92.10;;;;;;5092393;28;20003;-66
2021/08/07 10:30:23;;;;;;;;;;;13.00;92.20;;;;;;5092134;28;19923;-66
2021/08/07 10:32:50;;;;;;;;;;;13.00;92.10;;;;;;5091987;28;19912;-64
2021/08/07 10:35:16;;;;;;;;;;;13.00;92.30;;;;;;5091597;28;19918;-66
2021/08/07 10:37:43;;;;;;;;;;;12.90;92.80;;;;;;5073525;28;20389;-64
2021/08/07 10:40:11;;;;;;;;;;;12.90;92.50;;;;;;5091869;28;19950;-64
2021/08/07 10:42:38;;;;;;;;;;;12.90;92.90;;;;;;5091891;28;19912;-66
2021/08/07 10:45:08;;;;;;;;;;;12.90;92.50;;;;;;5091659;28;19916;-66
2021/08/07 10:47:42;;;;;;;;;;;12.80;92.40;;;;;;5091770;28;19916;-64
2021/08/07 10:50:24;;;;;;;;;;;12.80;92.50;;;;;;5090748;28;19908;-67
2021/08/07 10:52:53;;;;;;;;;;;12.80;92.50;;;;;;5091978;28;19995;-66
2021/08/07 10:55:38;;;;;;;;;;;12.80;92.50;;;;;;5091568;28;19932;-65
2021/08/07 10:58:04;;;;;;;;;;;12.80;92.60;;;;;;5091567;28;19912;-66
2021/08/07 11:00:31;;;;;;;;;;;12.80;92.50;;;;;;5091700;28;19908;-66
2021/08/07 11:03:14;;;;;;;;;;;12.90;92.50;;;;;;5091569;28;20263;-67
2021/08/07 11:05:48;;;;;;;;;;;12.80;92.30;;;;;;5090369;28;20279;-65
2021/08/07 11:08:15;;;;;;;;;;;12.80;92.30;;;;;;5091504;28;19924;-65
2021/08/07 11:10:42;;;;;;;;;;;12.90;92.40;;;;;;5091301;28;20010;-66
2021/08/07 11:13:24;;;;;;;;;;;12.90;92.00;;;;;;5091260;28;19912;-66
2021/08/07 11:16:09;;;;;;;;;;;12.90;92.00;;;;;;5090766;28;19962;-67
2021/08/07 11:18:36;;;;;;;;;;;13.00;92.20;;;;;;5091059;28;19919;-67
2021/08/07 11:21:02;;;;;;;;;;;13.00;92.00;;;;;;5090915;28;19918;-66
2021/08/07 11:23:36;;;;;;;;;;;13.00;91.90;;;;;;5091770;28;19912;-66
2021/08/07 11:26:04;;;;;;;;;;;12.90;92.20;;;;;;5091314;28;19916;-65
2021/08/07 11:28:31;;;;;;;;;;;12.90;92.10;;;;;;5090985;28;19923;-67
2021/08/07 11:31:11;;;;;;;;;;;12.90;92.20;;;;;;5090653;28;19919;-66
2021/08/07 11:33:38;;;;;;;;;;;12.90;92.20;;;;;;5090498;28;20238;-67
2021/08/07 11:36:06;;;;;;;;;;;12.90;92.50;;;;;;5090702;28;20383;-67
2021/08/07 11:38:33;;;;;;;;;;;12.90;92.40;;;;;;5091449;28;19912;-66
2021/08/07 11:41:08;;;;;;;;;;;12.90;92.40;;;;;;5090817;28;19912;-66
2021/08/07 11:43:40;;;;;;;;;;;12.90;92.30;;;;;;5090417;28;19908;-67
2021/08/07 11:46:14;;;;;;;;;;;12.80;92.30;;;;;;5090645;28;20418;-67
2021/08/07 11:48:45;;;;;;;;;;;12.80;92.30;;;;;;5090543;28;19927;-66
2021/08/07 11:51:12;;;;;;;;;;;12.80;92.40;;;;;;5090205;28;19916;-66
2021/08/07 11:53:40;;;;;;;;;;;12.70;92.40;;;;;;5090563;28;19912;-67
2021/08/07 11:56:07;;;;;;;;;;;12.70;92.60;;;;;;5090323;28;19908;-65
2021/08/07 11:58:34;;;;;;;;;;;12.70;92.60;;;;;;5090835;28;19908;-65
2021/08/07 12:01:02;;;;;;;;;;;12.60;92.60;;;;;;5090648;28;19912;-67
2021/08/07 12:03:38;;;;;;;;;;;12.60;92.50;;;;;;5090314;28;19998;-65
2021/08/07 12:06:05;;;;;;;;;;;12.60;92.70;;;;;;5089704;28;19908;-66
2021/08/07 12:08:32;;;;;;;;;;;12.60;92.70;;;;;;5089915;28;19943;-66
2021/08/07 12:11:00;;;;;;;;;;;12.60;92.80;;;;;;5090409;28;19940;-66
2021/08/07 12:13:28;;;;;;;;;;;12.60;92.80;;;;;;5090290;28;19920;-67
2021/08/07 12:16:00;;;;;;;;;;;12.60;92.90;;;;;;5090283;28;20136;-65
2021/08/07 12:18:37;;;;;;;;;;;12.60;92.70;;;;;;5090155;28;20013;-67
2021/08/07 12:21:04;;;;;;;;;;;12.60;92.80;;;;;;5089710;28;19979;-65
2021/08/07 12:23:47;;;;;;;;;;;12.60;92.70;;;;;;5089713;28;20278;-66
2021/08/07 12:26:15;;;;;;;;;;;12.60;92.60;;;;;;5090419;28;20000;-65
2021/08/07 12:28:42;;;;;;;;;;;12.60;92.60;;;;;;5093339;28;19916;-66
2021/08/07 12:31:09;;;;;;;;;;;12.60;92.80;;;;;;5094448;28;19908;-66
2021/08/07 12:33:38;;;;;;;;;;;12.60;92.80;;;;;;5094171;28;20049;-67
2021/08/07 12:36:20;;;;;;;;;;;12.50;92.80;;;;;;5093489;28;19909;-66
2021/08/07 12:38:48;;;;;;;;;;;12.50;92.80;;;;;;5094309;28;19909;-66
2021/08/07 12:41:20;;;;;;;;;;;12.50;92.90;;;;;;5094388;28;19970;-66
2021/08/07 12:43:47;;;;;;;;;;;12.40;92.90;;;;;;5094176;28;19947;-67
2021/08/07 12:46:15;;;;;;;;;;;12.40;93.00;;;;;;5094331;28;19924;-66
2021/08/07 12:48:59;;;;;;;;;;;12.40;93.20;;;;;;5093486;28;19916;-66
2021/08/07 12:51:34;;;;;;;;;;;12.40;93.20;;;;;;5094153;28;19912;-68
2021/08/07 12:54:02;;;;;;;;;;;12.40;93.30;;;;;;5094045;28;20425;-67
2021/08/07 12:56:31;;;;;;;;;;;12.30;93.30;;;;;;5094089;28;19908;-66
2021/08/07 12:58:59;;;;;;;;;;;12.30;93.30;;;;;;5093911;28;19973;-66
2021/08/07 13:01:26;;;;;;;;;;;12.20;93.30;;;;;;5093495;28;19964;-65
2021/08/07 13:03:58;;;;;;;;;;;12.20;93.50;;;;;;5092857;28;19909;-63
2021/08/07 13:06:25;;;;;;;;;;;12.20;93.60;;;;;;5093717;28;19908;-65
2021/08/07 13:08:52;;;;;;;;;;;12.20;93.70;;;;;;5093577;28;19984;-64
2021/08/07 13:11:23;;;;;;;;;;;12.20;93.60;;;;;;5093906;28;19920;-66
2021/08/07 13:13:54;;;;;;;;;;;12.20;93.50;;;;;;5093346;28;19912;-64
2021/08/07 13:16:40;;;;;;;;;;;12.20;93.80;;;;;;5094056;28;19908;-67
2021/08/07 13:19:15;;;;;;;;;;;12.20;93.70;;;;;;5092725;28;19908;-66
2021/08/07 13:21:42;;;;;;;;;;;12.20;93.90;;;;;;5093317;28;20058;-66
2021/08/07 13:24:44;;;;;;;;;;;12.10;93.90;;;;;;5093381;28;19908;-65
2021/08/07 13:27:12;;;;;;;;;;;12.20;93.90;;;;;;5030208;28;20303;-66
2021/08/07 13:29:40;;;;;;;;;;;12.10;93.90;;;;;;5081215;28;20209;-64
2021/08/07 13:32:23;;;;;;;;;;;12.10;93.90;;;;;;5093234;28;19908;-65
2021/08/07 13:34:51;;;;;;;;;;;12.10;94.10;;;;;;5092496;28;19953;-66
2021/08/07 13:37:18;;;;;;;;;;;12.10;94.00;;;;;;5093234;28;20225;-67
2021/08/07 13:39:45;;;;;;;;;;;12.10;94.10;;;;;;5074577;28;19915;-65
2021/08/07 13:42:14;;;;;;;;;;;12.10;93.90;;;;;;5092989;28;20078;-64
2021/08/07 13:44:41;;;;;;;;;;;12.10;94.00;;;;;;5092867;28;19946;-65
2021/08/07 13:47:07;;;;;;;;;;;12.00;94.10;;;;;;5093050;28;19967;-65
2021/08/07 13:49:34;;;;;;;;;;;12.00;94.10;;;;;;5091942;28;20009;-65
2021/08/07 13:52:01;;;;;;;;;;;12.00;94.20;;;;;;5074731;28;19908;-68
2021/08/07 13:54:27;;;;;;;;;;;11.90;94.20;;;;;;5092513;28;19908;-64
2021/08/07 13:56:54;;;;;;;;;;;11.80;94.30;;;;;;5094227;28;20290;-63
2021/08/07 13:59:21;;;;;;;;;;;11.80;94.40;;;;;;5095230;28;19915;-64
2021/08/07 14:01:47;;;;;;;;;;;11.80;94.50;;;;;;5094982;28;19961;-64
2021/08/07 14:04:14;;;;;;;;;;;11.80;94.50;;;;;;5094467;28;20312;-64
2021/08/07 14:06:41;;;;;;;;;;;11.70;94.90;;;;;;5095146;28;19908;-64
2021/08/07 14:09:07;;;;;;;;;;;11.70;94.50;;;;;;5094779;28;19923;-65
2021/08/07 14:11:34;;;;;;;;;;;11.70;94.70;;;;;;5094674;28;20446;-65
2021/08/07 14:14:01;;;;;;;;;;;11.60;94.90;;;;;;5094891;28;20270;-64
2021/08/07 14:16:28;;;;;;;;;;;11.60;94.80;;;;;;5094663;28;20315;-66
2021/08/07 14:18:54;;;;;;;;;;;11.50;95.00;;;;;;5093979;28;19912;-65
2021/08/07 14:21:21;;;;;;;;;;;11.50;95.10;;;;;;5094515;28;19908;-65
2021/08/07 14:23:48;;;;;;;;;;;11.50;95.10;;;;;;5076058;28;19912;-64